Shepperton, United Kingdom
Current Conditions -  °F | °C
As of 12:50 PM on Sunday 21 Dec 2014 (Local Time) from EGLL Reporting Station
Broken Clouds Broken Clouds  
Wind Chill: 50°   Ceiling: 2500
Heat Index: 50°   Visibility: 6mi
Dew Point: 43°   Wind: 21mph
Humidity: 76%   Direction: 240°WSW
Pressure: 30.3"   Gusts: NA
Location:  51.4°N, 0.45°W
Report Text: EGLL 211250Z 24018KT 9999 BKN025 10/06 Q1026
Loading
Personal Weather Stations






























Interactive Weather Map New forecast layout! Learn more

10-Day Weather Forecast

Advertisements
Track Severe Weather on mobile